sensor_id;sensor_type;location;lat;lon;timestamp;P1;durP1;ratioP1;P2;durP2;ratioP2
16531;SDS011;66872;63.142;14.482;2023-08-07T00:00:29;2.40;;;2.13;;
16531;SDS011;66872;63.142;14.482;2023-08-07T00:02:54;2.40;;;2.20;;
16531;SDS011;66872;63.142;14.482;2023-08-07T00:05:20;2.73;;;2.50;;
16531;SDS011;66872;63.142;14.482;2023-08-07T00:07:46;2.50;;;2.30;;
16531;SDS011;66872;63.142;14.482;2023-08-07T00:10:12;3.07;;;2.50;;
16531;SDS011;66872;63.142;14.482;2023-08-07T00:12:38;2.63;;;2.07;;
16531;SDS011;66872;63.142;14.482;2023-08-07T00:15:04;2.93;;;2.20;;
16531;SDS011;66872;63.142;14.482;2023-08-07T00:17:30;2.37;;;2.17;;
16531;SDS011;66872;63.142;14.482;2023-08-07T00:19:56;5.20;;;2.50;;
16531;SDS011;66872;63.142;14.482;2023-08-07T00:22:22;3.70;;;2.53;;
16531;SDS011;66872;63.142;14.482;2023-08-07T00:24:48;2.73;;;2.20;;
16531;SDS011;66872;63.142;14.482;2023-08-07T00:27:14;2.50;;;2.30;;
16531;SDS011;66872;63.142;14.482;2023-08-07T00:29:39;2.80;;;2.30;;
16531;SDS011;66872;63.142;14.482;2023-08-07T00:32:05;3.47;;;2.50;;
16531;SDS011;66872;63.142;14.482;2023-08-07T00:34:31;2.93;;;2.30;;
16531;SDS011;66872;63.142;14.482;2023-08-07T00:36:57;2.63;;;2.43;;
16531;SDS011;66872;63.142;14.482;2023-08-07T00:39:23;3.23;;;2.40;;
16531;SDS011;66872;63.142;14.482;2023-08-07T00:41:49;3.07;;;2.50;;
16531;SDS011;66872;63.142;14.482;2023-08-07T00:44:15;2.50;;;2.30;;
16531;SDS011;66872;63.142;14.482;2023-08-07T00:46:40;3.40;;;2.77;;
16531;SDS011;66872;63.142;14.482;2023-08-07T00:49:07;2.53;;;2.33;;
16531;SDS011;66872;63.142;14.482;2023-08-07T00:51:35;2.73;;;2.53;;
16531;SDS011;66872;63.142;14.482;2023-08-07T00:54:02;4.03;;;2.60;;
16531;SDS011;66872;63.142;14.482;2023-08-07T00:56:30;2.50;;;2.20;;
16531;SDS011;66872;63.142;14.482;2023-08-07T00:58:57;2.70;;;2.50;;
16531;SDS011;66872;63.142;14.482;2023-08-07T01:01:26;3.67;;;2.50;;
16531;SDS011;66872;63.142;14.482;2023-08-07T01:03:52;3.03;;;2.50;;
16531;SDS011;66872;63.142;14.482;2023-08-07T01:06:18;2.67;;;2.47;;
16531;SDS011;66872;63.142;14.482;2023-08-07T01:08:44;2.77;;;2.40;;
16531;SDS011;66872;63.142;14.482;2023-08-07T01:14:23;3.73;;;2.50;;
16531;SDS011;66872;63.142;14.482;2023-08-07T01:17:11;3.17;;;2.70;;
16531;SDS011;66872;63.142;14.482;2023-08-07T01:19:40;3.30;;;2.43;;
16531;SDS011;66872;63.142;14.482;2023-08-07T01:22:13;4.03;;;2.77;;
16531;SDS011;66872;63.142;14.482;2023-08-07T01:24:40;2.70;;;2.50;;
16531;SDS011;66872;63.142;14.482;2023-08-07T01:29:57;3.50;;;2.50;;
16531;SDS011;66872;63.142;14.482;2023-08-07T01:35:35;2.53;;;2.33;;
16531;SDS011;66872;63.142;14.482;2023-08-07T01:38:05;2.93;;;2.63;;
16531;SDS011;66872;63.142;14.482;2023-08-07T01:40:32;3.90;;;2.77;;
16531;SDS011;66872;63.142;14.482;2023-08-07T01:43:00;3.00;;;2.70;;
16531;SDS011;66872;63.142;14.482;2023-08-07T01:45:26;2.70;;;2.50;;
16531;SDS011;66872;63.142;14.482;2023-08-07T01:47:53;3.63;;;2.40;;
16531;SDS011;66872;63.142;14.482;2023-08-07T01:50:19;3.83;;;3.07;;
16531;SDS011;66872;63.142;14.482;2023-08-07T01:52:45;3.33;;;2.70;;
16531;SDS011;66872;63.142;14.482;2023-08-07T01:55:12;4.87;;;2.90;;
16531;SDS011;66872;63.142;14.482;2023-08-07T01:57:40;2.97;;;2.53;;
16531;SDS011;66872;63.142;14.482;2023-08-07T02:00:06;2.80;;;2.40;;
16531;SDS011;66872;63.142;14.482;2023-08-07T02:02:33;2.73;;;2.47;;
16531;SDS011;66872;63.142;14.482;2023-08-07T02:04:59;4.00;;;2.50;;
16531;SDS011;66872;63.142;14.482;2023-08-07T02:07:25;2.60;;;2.40;;
16531;SDS011;66872;63.142;14.482;2023-08-07T02:09:50;3.30;;;2.77;;
16531;SDS011;66872;63.142;14.482;2023-08-07T02:12:16;3.73;;;2.70;;
16531;SDS011;66872;63.142;14.482;2023-08-07T02:14:42;2.43;;;2.23;;
16531;SDS011;66872;63.142;14.482;2023-08-07T02:17:07;3.27;;;2.77;;
16531;SDS011;66872;63.142;14.482;2023-08-07T02:19:33;5.03;;;2.60;;
16531;SDS011;66872;63.142;14.482;2023-08-07T02:21:59;2.80;;;2.53;;
16531;SDS011;66872;63.142;14.482;2023-08-07T02:24:24;2.97;;;2.70;;
16531;SDS011;66872;63.142;14.482;2023-08-07T02:26:50;2.97;;;2.67;;
16531;SDS011;66872;63.142;14.482;2023-08-07T02:29:16;3.27;;;2.60;;
16531;SDS011;66872;63.142;14.482;2023-08-07T02:31:41;2.53;;;2.33;;
16531;SDS011;66872;63.142;14.482;2023-08-07T02:34:07;2.70;;;2.50;;
16531;SDS011;66872;63.142;14.482;2023-08-07T02:36:33;2.60;;;2.40;;
16531;SDS011;66872;63.142;14.482;2023-08-07T02:38:59;3.00;;;2.60;;
16531;SDS011;66872;63.142;14.482;2023-08-07T02:41:24;2.80;;;2.50;;
16531;SDS011;66872;63.142;14.482;2023-08-07T02:43:50;2.73;;;2.50;;
16531;SDS011;66872;63.142;14.482;2023-08-07T02:46:15;2.80;;;2.50;;
16531;SDS011;66872;63.142;14.482;2023-08-07T02:48:43;2.83;;;2.37;;
16531;SDS011;66872;63.142;14.482;2023-08-07T02:51:09;4.27;;;2.37;;
16531;SDS011;66872;63.142;14.482;2023-08-07T02:53:34;2.23;;;2.03;;
16531;SDS011;66872;63.142;14.482;2023-08-07T02:56:00;2.60;;;2.40;;
16531;SDS011;66872;63.142;14.482;2023-08-07T02:58:26;3.00;;;2.67;;
16531;SDS011;66872;63.142;14.482;2023-08-07T03:00:51;3.87;;;2.90;;
16531;SDS011;66872;63.142;14.482;2023-08-07T03:03:17;2.57;;;2.37;;
16531;SDS011;66872;63.142;14.482;2023-08-07T03:05:49;2.97;;;2.67;;
16531;SDS011;66872;63.142;14.482;2023-08-07T03:08:15;2.83;;;2.53;;
16531;SDS011;66872;63.142;14.482;2023-08-07T03:10:41;2.93;;;2.50;;
16531;SDS011;66872;63.142;14.482;2023-08-07T03:13:07;3.10;;;2.80;;
16531;SDS011;66872;63.142;14.482;2023-08-07T03:15:32;3.47;;;2.33;;
16531;SDS011;66872;63.142;14.482;2023-08-07T03:17:58;3.03;;;2.40;;
16531;SDS011;66872;63.142;14.482;2023-08-07T03:20:24;2.60;;;2.40;;
16531;SDS011;66872;63.142;14.482;2023-08-07T03:22:49;3.10;;;2.23;;
16531;SDS011;66872;63.142;14.482;2023-08-07T03:25:15;2.63;;;2.40;;
16531;SDS011;66872;63.142;14.482;2023-08-07T03:27:40;2.97;;;2.40;;
16531;SDS011;66872;63.142;14.482;2023-08-07T03:30:06;2.53;;;2.30;;
16531;SDS011;66872;63.142;14.482;2023-08-07T03:32:32;2.67;;;2.47;;
16531;SDS011;66872;63.142;14.482;2023-08-07T03:34:58;4.57;;;2.63;;
16531;SDS011;66872;63.142;14.482;2023-08-07T03:37:24;2.67;;;2.47;;
16531;SDS011;66872;63.142;14.482;2023-08-07T03:39:49;4.53;;;2.67;;
16531;SDS011;66872;63.142;14.482;2023-08-07T03:42:15;3.10;;;2.30;;
16531;SDS011;66872;63.142;14.482;2023-08-07T03:44:41;2.90;;;2.60;;
16531;SDS011;66872;63.142;14.482;2023-08-07T03:47:06;3.10;;;2.50;;
16531;SDS011;66872;63.142;14.482;2023-08-07T03:49:32;2.87;;;2.60;;
16531;SDS011;66872;63.142;14.482;2023-08-07T03:51:58;2.83;;;2.50;;
16531;SDS011;66872;63.142;14.482;2023-08-07T03:54:24;2.67;;;2.47;;
16531;SDS011;66872;63.142;14.482;2023-08-07T03:56:50;3.27;;;2.23;;
16531;SDS011;66872;63.142;14.482;2023-08-07T03:59:16;3.20;;;2.50;;
16531;SDS011;66872;63.142;14.482;2023-08-07T04:01:42;3.03;;;2.43;;
16531;SDS011;66872;63.142;14.482;2023-08-07T04:04:08;2.47;;;2.27;;
16531;SDS011;66872;63.142;14.482;2023-08-07T04:06:33;2.63;;;2.33;;
16531;SDS011;66872;63.142;14.482;2023-08-07T04:08:59;3.43;;;2.67;;
16531;SDS011;66872;63.142;14.482;2023-08-07T04:11:25;2.90;;;2.60;;
16531;SDS011;66872;63.142;14.482;2023-08-07T04:13:52;2.83;;;2.47;;
16531;SDS011;66872;63.142;14.482;2023-08-07T04:16:17;2.53;;;2.33;;
16531;SDS011;66872;63.142;14.482;2023-08-07T04:18:43;2.50;;;2.30;;
16531;SDS011;66872;63.142;14.482;2023-08-07T04:21:09;3.13;;;2.57;;
16531;SDS011;66872;63.142;14.482;2023-08-07T04:23:34;2.53;;;2.13;;
16531;SDS011;66872;63.142;14.482;2023-08-07T04:26:00;2.47;;;2.27;;
16531;SDS011;66872;63.142;14.482;2023-08-07T04:28:27;3.07;;;2.20;;
16531;SDS011;66872;63.142;14.482;2023-08-07T04:30:54;2.47;;;2.27;;
16531;SDS011;66872;63.142;14.482;2023-08-07T04:33:20;2.20;;;2.00;;
16531;SDS011;66872;63.142;14.482;2023-08-07T04:35:46;2.47;;;2.27;;
16531;SDS011;66872;63.142;14.482;2023-08-07T04:38:15;2.07;;;1.97;;
16531;SDS011;66872;63.142;14.482;2023-08-07T04:40:48;2.60;;;2.27;;
16531;SDS011;66872;63.142;14.482;2023-08-07T04:43:14;2.23;;;2.03;;
16531;SDS011;66872;63.142;14.482;2023-08-07T04:45:41;2.33;;;2.13;;
16531;SDS011;66872;63.142;14.482;2023-08-07T04:48:10;2.57;;;2.23;;
16531;SDS011;66872;63.142;14.482;2023-08-07T04:50:36;2.50;;;2.23;;
16531;SDS011;66872;63.142;14.482;2023-08-07T04:53:02;2.40;;;2.20;;
16531;SDS011;66872;63.142;14.482;2023-08-07T04:55:28;2.30;;;2.10;;
16531;SDS011;66872;63.142;14.482;2023-08-07T04:57:53;2.10;;;1.93;;
16531;SDS011;66872;63.142;14.482;2023-08-07T05:00:21;2.30;;;2.10;;
16531;SDS011;66872;63.142;14.482;2023-08-07T05:02:47;2.30;;;2.00;;
16531;SDS011;66872;63.142;14.482;2023-08-07T05:05:16;2.20;;;2.00;;
16531;SDS011;66872;63.142;14.482;2023-08-07T05:07:43;2.70;;;1.90;;
16531;SDS011;66872;63.142;14.482;2023-08-07T05:10:09;2.37;;;2.17;;
16531;SDS011;66872;63.142;14.482;2023-08-07T05:12:35;2.40;;;2.20;;
16531;SDS011;66872;63.142;14.482;2023-08-07T05:15:01;2.20;;;2.00;;
16531;SDS011;66872;63.142;14.482;2023-08-07T05:17:26;2.03;;;1.83;;
16531;SDS011;66872;63.142;14.482;2023-08-07T05:19:52;2.30;;;2.10;;
16531;SDS011;66872;63.142;14.482;2023-08-07T05:22:18;2.47;;;2.27;;
16531;SDS011;66872;63.142;14.482;2023-08-07T05:24:44;2.13;;;1.93;;
16531;SDS011;66872;63.142;14.482;2023-08-07T05:27:10;2.33;;;2.13;;
16531;SDS011;66872;63.142;14.482;2023-08-07T05:29:36;2.00;;;1.90;;
16531;SDS011;66872;63.142;14.482;2023-08-07T05:32:09;2.20;;;2.00;;
16531;SDS011;66872;63.142;14.482;2023-08-07T05:34:35;2.10;;;1.80;;
16531;SDS011;66872;63.142;14.482;2023-08-07T05:37:01;2.23;;;2.03;;
16531;SDS011;66872;63.142;14.482;2023-08-07T05:39:26;1.90;;;1.80;;
16531;SDS011;66872;63.142;14.482;2023-08-07T05:41:52;2.27;;;2.07;;
16531;SDS011;66872;63.142;14.482;2023-08-07T05:44:19;2.13;;;1.97;;
16531;SDS011;66872;63.142;14.482;2023-08-07T05:46:45;1.73;;;1.63;;
16531;SDS011;66872;63.142;14.482;2023-08-07T05:49:11;2.10;;;1.90;;
16531;SDS011;66872;63.142;14.482;2023-08-07T05:51:36;2.00;;;1.90;;
16531;SDS011;66872;63.142;14.482;2023-08-07T05:54:02;2.20;;;2.00;;
16531;SDS011;66872;63.142;14.482;2023-08-07T05:56:28;1.80;;;1.70;;
16531;SDS011;66872;63.142;14.482;2023-08-07T05:58:53;1.77;;;1.67;;
16531;SDS011;66872;63.142;14.482;2023-08-07T06:01:19;2.27;;;2.07;;
16531;SDS011;66872;63.142;14.482;2023-08-07T06:03:45;1.93;;;1.80;;
16531;SDS011;66872;63.142;14.482;2023-08-07T06:06:11;2.00;;;1.80;;
16531;SDS011;66872;63.142;14.482;2023-08-07T06:08:37;1.63;;;1.53;;
16531;SDS011;66872;63.142;14.482;2023-08-07T06:11:03;1.80;;;1.70;;
16531;SDS011;66872;63.142;14.482;2023-08-07T06:13:30;1.60;;;1.50;;
16531;SDS011;66872;63.142;14.482;2023-08-07T06:15:55;1.80;;;1.70;;
16531;SDS011;66872;63.142;14.482;2023-08-07T06:18:21;1.70;;;1.60;;
16531;SDS011;66872;63.142;14.482;2023-08-07T06:20:47;2.10;;;1.90;;
16531;SDS011;66872;63.142;14.482;2023-08-07T06:23:12;1.70;;;1.60;;
16531;SDS011;66872;63.142;14.482;2023-08-07T06:25:38;1.73;;;1.63;;
16531;SDS011;66872;63.142;14.482;2023-08-07T06:28:04;2.00;;;1.90;;
16531;SDS011;66872;63.142;14.482;2023-08-07T06:30:32;2.07;;;1.87;;
16531;SDS011;66872;63.142;14.482;2023-08-07T06:32:58;1.77;;;1.60;;
16531;SDS011;66872;63.142;14.482;2023-08-07T06:35:23;2.57;;;1.90;;
16531;SDS011;66872;63.142;14.482;2023-08-07T06:37:49;1.57;;;1.47;;
16531;SDS011;66872;63.142;14.482;2023-08-07T06:40:15;1.87;;;1.60;;
16531;SDS011;66872;63.142;14.482;2023-08-07T06:42:40;1.80;;;1.70;;
16531;SDS011;66872;63.142;14.482;2023-08-07T06:45:06;1.93;;;1.73;;
16531;SDS011;66872;63.142;14.482;2023-08-07T06:47:32;1.60;;;1.50;;
16531;SDS011;66872;63.142;14.482;2023-08-07T06:49:58;1.67;;;1.57;;
16531;SDS011;66872;63.142;14.482;2023-08-07T06:52:23;1.60;;;1.50;;
16531;SDS011;66872;63.142;14.482;2023-08-07T06:54:49;1.60;;;1.50;;
16531;SDS011;66872;63.142;14.482;2023-08-07T06:57:14;1.80;;;1.70;;
16531;SDS011;66872;63.142;14.482;2023-08-07T06:59:40;1.60;;;1.50;;
16531;SDS011;66872;63.142;14.482;2023-08-07T07:02:06;1.50;;;1.40;;
16531;SDS011;66872;63.142;14.482;2023-08-07T07:04:32;1.70;;;1.60;;
16531;SDS011;66872;63.142;14.482;2023-08-07T07:06:58;1.60;;;1.50;;
16531;SDS011;66872;63.142;14.482;2023-08-07T07:09:24;1.60;;;1.50;;
16531;SDS011;66872;63.142;14.482;2023-08-07T07:11:49;1.50;;;1.40;;
16531;SDS011;66872;63.142;14.482;2023-08-07T07:14:15;2.00;;;1.80;;
16531;SDS011;66872;63.142;14.482;2023-08-07T07:16:41;1.70;;;1.60;;
16531;SDS011;66872;63.142;14.482;2023-08-07T07:19:08;1.70;;;1.60;;
16531;SDS011;66872;63.142;14.482;2023-08-07T07:21:34;1.80;;;1.70;;
16531;SDS011;66872;63.142;14.482;2023-08-07T07:24:01;1.50;;;1.37;;
16531;SDS011;66872;63.142;14.482;2023-08-07T07:26:28;1.50;;;1.40;;
16531;SDS011;66872;63.142;14.482;2023-08-07T07:28:53;1.50;;;1.40;;
16531;SDS011;66872;63.142;14.482;2023-08-07T07:31:19;1.80;;;1.70;;
16531;SDS011;66872;63.142;14.482;2023-08-07T07:33:45;1.70;;;1.60;;
16531;SDS011;66872;63.142;14.482;2023-08-07T07:36:17;1.50;;;1.40;;
16531;SDS011;66872;63.142;14.482;2023-08-07T07:38:46;1.40;;;1.30;;
16531;SDS011;66872;63.142;14.482;2023-08-07T07:41:13;1.50;;;1.40;;
16531;SDS011;66872;63.142;14.482;2023-08-07T07:43:39;2.27;;;1.47;;
16531;SDS011;66872;63.142;14.482;2023-08-07T07:46:05;1.93;;;1.60;;
16531;SDS011;66872;63.142;14.482;2023-08-07T07:48:31;1.60;;;1.50;;
16531;SDS011;66872;63.142;14.482;2023-08-07T07:50:59;1.40;;;1.30;;
16531;SDS011;66872;63.142;14.482;2023-08-07T07:53:25;1.53;;;1.43;;
16531;SDS011;66872;63.142;14.482;2023-08-07T07:55:51;1.57;;;1.47;;
16531;SDS011;66872;63.142;14.482;2023-08-07T07:58:17;1.50;;;1.40;;
16531;SDS011;66872;63.142;14.482;2023-08-07T08:00:43;1.40;;;1.30;;
16531;SDS011;66872;63.142;14.482;2023-08-07T08:03:08;1.60;;;1.50;;
16531;SDS011;66872;63.142;14.482;2023-08-07T08:05:34;1.50;;;1.40;;
16531;SDS011;66872;63.142;14.482;2023-08-07T08:08:00;1.67;;;1.57;;
16531;SDS011;66872;63.142;14.482;2023-08-07T08:10:26;1.70;;;1.47;;
16531;SDS011;66872;63.142;14.482;2023-08-07T08:12:55;1.40;;;1.30;;
16531;SDS011;66872;63.142;14.482;2023-08-07T08:15:21;1.70;;;1.60;;
16531;SDS011;66872;63.142;14.482;2023-08-07T08:17:47;1.57;;;1.47;;
16531;SDS011;66872;63.142;14.482;2023-08-07T08:20:14;1.40;;;1.30;;
16531;SDS011;66872;63.142;14.482;2023-08-07T08:22:43;1.40;;;1.30;;
16531;SDS011;66872;63.142;14.482;2023-08-07T08:25:10;1.97;;;1.60;;
16531;SDS011;66872;63.142;14.482;2023-08-07T08:27:37;1.50;;;1.40;;
16531;SDS011;66872;63.142;14.482;2023-08-07T08:30:06;1.70;;;1.40;;
16531;SDS011;66872;63.142;14.482;2023-08-07T08:32:32;1.40;;;1.30;;
16531;SDS011;66872;63.142;14.482;2023-08-07T08:34:58;1.50;;;1.40;;
16531;SDS011;66872;63.142;14.482;2023-08-07T08:37:24;1.40;;;1.30;;
16531;SDS011;66872;63.142;14.482;2023-08-07T08:39:49;1.30;;;1.20;;
16531;SDS011;66872;63.142;14.482;2023-08-07T08:42:15;1.47;;;1.37;;
16531;SDS011;66872;63.142;14.482;2023-08-07T08:44:53;1.50;;;1.40;;
16531;SDS011;66872;63.142;14.482;2023-08-07T08:47:21;1.40;;;1.30;;
16531;SDS011;66872;63.142;14.482;2023-08-07T08:49:49;1.50;;;1.40;;
16531;SDS011;66872;63.142;14.482;2023-08-07T08:52:19;1.37;;;1.27;;
16531;SDS011;66872;63.142;14.482;2023-08-07T08:54:46;1.40;;;1.30;;
16531;SDS011;66872;63.142;14.482;2023-08-07T08:57:13;1.30;;;1.20;;
16531;SDS011;66872;63.142;14.482;2023-08-07T08:59:41;1.33;;;1.13;;
16531;SDS011;66872;63.142;14.482;2023-08-07T09:02:08;1.33;;;1.23;;
16531;SDS011;66872;63.142;14.482;2023-08-07T09:04:35;1.30;;;1.20;;
16531;SDS011;66872;63.142;14.482;2023-08-07T09:07:01;1.40;;;1.30;;
16531;SDS011;66872;63.142;14.482;2023-08-07T09:09:27;1.40;;;1.30;;
16531;SDS011;66872;63.142;14.482;2023-08-07T09:11:54;1.80;;;1.30;;
16531;SDS011;66872;63.142;14.482;2023-08-07T09:14:26;1.20;;;1.10;;
16531;SDS011;66872;63.142;14.482;2023-08-07T09:16:55;1.43;;;1.33;;
16531;SDS011;66872;63.142;14.482;2023-08-07T09:19:24;1.30;;;1.20;;
16531;SDS011;66872;63.142;14.482;2023-08-07T09:21:51;1.20;;;1.10;;
16531;SDS011;66872;63.142;14.482;2023-08-07T09:24:16;2.50;;;1.40;;
16531;SDS011;66872;63.142;14.482;2023-08-07T09:26:44;1.50;;;1.30;;
16531;SDS011;66872;63.142;14.482;2023-08-07T09:29:10;1.30;;;1.20;;
16531;SDS011;66872;63.142;14.482;2023-08-07T09:31:36;1.37;;;1.27;;
16531;SDS011;66872;63.142;14.482;2023-08-07T09:34:03;1.40;;;1.13;;
16531;SDS011;66872;63.142;14.482;2023-08-07T09:36:33;1.20;;;1.10;;
16531;SDS011;66872;63.142;14.482;2023-08-07T09:39:02;1.30;;;1.20;;
16531;SDS011;66872;63.142;14.482;2023-08-07T09:41:28;1.40;;;1.30;;
16531;SDS011;66872;63.142;14.482;2023-08-07T09:43:55;1.30;;;1.20;;
16531;SDS011;66872;63.142;14.482;2023-08-07T09:46:22;1.20;;;1.10;;
16531;SDS011;66872;63.142;14.482;2023-08-07T09:48:50;1.30;;;1.20;;
16531;SDS011;66872;63.142;14.482;2023-08-07T09:51:15;1.10;;;1.10;;
16531;SDS011;66872;63.142;14.482;2023-08-07T09:53:41;1.20;;;1.10;;
16531;SDS011;66872;63.142;14.482;2023-08-07T09:56:07;1.30;;;1.20;;
16531;SDS011;66872;63.142;14.482;2023-08-07T09:58:32;1.30;;;1.20;;
16531;SDS011;66872;63.142;14.482;2023-08-07T10:01:07;1.20;;;1.10;;
16531;SDS011;66872;63.142;14.482;2023-08-07T10:03:34;1.20;;;1.10;;
16531;SDS011;66872;63.142;14.482;2023-08-07T10:06:01;1.30;;;1.20;;
16531;SDS011;66872;63.142;14.482;2023-08-07T10:08:27;1.20;;;1.10;;
16531;SDS011;66872;63.142;14.482;2023-08-07T10:10:53;1.40;;;1.30;;
16531;SDS011;66872;63.142;14.482;2023-08-07T10:13:19;1.03;;;1.03;;
16531;SDS011;66872;63.142;14.482;2023-08-07T10:15:46;1.30;;;1.20;;
16531;SDS011;66872;63.142;14.482;2023-08-07T10:18:13;1.30;;;1.20;;
16531;SDS011;66872;63.142;14.482;2023-08-07T10:20:39;1.07;;;1.00;;
16531;SDS011;66872;63.142;14.482;2023-08-07T10:23:08;1.30;;;1.20;;
16531;SDS011;66872;63.142;14.482;2023-08-07T10:25:36;1.30;;;1.20;;
16531;SDS011;66872;63.142;14.482;2023-08-07T10:28:05;1.20;;;1.10;;
16531;SDS011;66872;63.142;14.482;2023-08-07T10:30:35;2.33;;;1.20;;
16531;SDS011;66872;63.142;14.482;2023-08-07T10:33:02;1.40;;;1.30;;
16531;SDS011;66872;63.142;14.482;2023-08-07T10:35:31;1.30;;;1.20;;
16531;SDS011;66872;63.142;14.482;2023-08-07T10:38:05;1.40;;;1.30;;
16531;SDS011;66872;63.142;14.482;2023-08-07T10:40:33;1.30;;;1.20;;
16531;SDS011;66872;63.142;14.482;2023-08-07T10:43:12;1.13;;;1.03;;
16531;SDS011;66872;63.142;14.482;2023-08-07T10:45:41;1.50;;;1.40;;
16531;SDS011;66872;63.142;14.482;2023-08-07T10:48:08;1.40;;;1.30;;
16531;SDS011;66872;63.142;14.482;2023-08-07T10:50:49;1.30;;;1.20;;
16531;SDS011;66872;63.142;14.482;2023-08-07T10:53:44;1.20;;;1.10;;
16531;SDS011;66872;63.142;14.482;2023-08-07T10:56:16;1.40;;;1.30;;
16531;SDS011;66872;63.142;14.482;2023-08-07T10:58:47;1.57;;;1.20;;
16531;SDS011;66872;63.142;14.482;2023-08-07T11:01:17;1.13;;;1.03;;
16531;SDS011;66872;63.142;14.482;2023-08-07T11:04:28;1.30;;;1.20;;
16531;SDS011;66872;63.142;14.482;2023-08-07T11:06:37;1.10;;;1.00;;
16531;SDS011;66872;63.142;14.482;2023-08-07T11:09:04;1.30;;;1.20;;
16531;SDS011;66872;63.142;14.482;2023-08-07T11:11:35;1.57;;;1.20;;
16531;SDS011;66872;63.142;14.482;2023-08-07T11:14:05;1.40;;;1.30;;
16531;SDS011;66872;63.142;14.482;2023-08-07T11:16:32;1.30;;;1.20;;
16531;SDS011;66872;63.142;14.482;2023-08-07T11:18:58;1.33;;;1.23;;
16531;SDS011;66872;63.142;14.482;2023-08-07T11:21:25;1.43;;;1.33;;
16531;SDS011;66872;63.142;14.482;2023-08-07T11:23:51;1.33;;;1.23;;
16531;SDS011;66872;63.142;14.482;2023-08-07T11:26:16;1.40;;;1.30;;
16531;SDS011;66872;63.142;14.482;2023-08-07T11:28:42;1.30;;;1.20;;
16531;SDS011;66872;63.142;14.482;2023-08-07T11:31:08;1.47;;;1.37;;
16531;SDS011;66872;63.142;14.482;2023-08-07T11:33:35;1.50;;;1.40;;
16531;SDS011;66872;63.142;14.482;2023-08-07T11:36:01;1.40;;;1.30;;
16531;SDS011;66872;63.142;14.482;2023-08-07T11:41:06;1.50;;;1.40;;
16531;SDS011;66872;63.142;14.482;2023-08-07T11:43:32;1.20;;;1.10;;
16531;SDS011;66872;63.142;14.482;2023-08-07T11:46:17;1.50;;;1.40;;
16531;SDS011;66872;63.142;14.482;2023-08-07T11:48:43;1.40;;;1.30;;
16531;SDS011;66872;63.142;14.482;2023-08-07T11:51:09;1.30;;;1.20;;
16531;SDS011;66872;63.142;14.482;2023-08-07T11:53:37;1.30;;;1.20;;
16531;SDS011;66872;63.142;14.482;2023-08-07T11:56:05;1.30;;;1.20;;
16531;SDS011;66872;63.142;14.482;2023-08-07T11:58:39;1.20;;;1.10;;
16531;SDS011;66872;63.142;14.482;2023-08-07T12:01:06;1.80;;;1.33;;
16531;SDS011;66872;63.142;14.482;2023-08-07T12:03:36;1.40;;;1.30;;
16531;SDS011;66872;63.142;14.482;2023-08-07T12:06:06;1.50;;;1.40;;
16531;SDS011;66872;63.142;14.482;2023-08-07T12:08:40;1.30;;;1.20;;
16531;SDS011;66872;63.142;14.482;2023-08-07T12:11:09;1.40;;;1.20;;
16531;SDS011;66872;63.142;14.482;2023-08-07T12:13:37;1.27;;;1.17;;
16531;SDS011;66872;63.142;14.482;2023-08-07T12:16:13;1.30;;;1.20;;
16531;SDS011;66872;63.142;14.482;2023-08-07T12:21:16;1.30;;;1.20;;
16531;SDS011;66872;63.142;14.482;2023-08-07T12:23:47;1.20;;;1.10;;
16531;SDS011;66872;63.142;14.482;2023-08-07T12:26:13;1.73;;;1.30;;
16531;SDS011;66872;63.142;14.482;2023-08-07T12:28:40;1.23;;;1.13;;
16531;SDS011;66872;63.142;14.482;2023-08-07T12:31:05;1.20;;;1.10;;
16531;SDS011;66872;63.142;14.482;2023-08-07T12:33:32;1.20;;;1.10;;
16531;SDS011;66872;63.142;14.482;2023-08-07T12:35:58;1.10;;;1.10;;
16531;SDS011;66872;63.142;14.482;2023-08-07T12:38:24;1.80;;;1.30;;
16531;SDS011;66872;63.142;14.482;2023-08-07T12:40:50;1.20;;;1.10;;
16531;SDS011;66872;63.142;14.482;2023-08-07T12:43:16;1.10;;;1.03;;
16531;SDS011;66872;63.142;14.482;2023-08-07T12:45:42;1.10;;;1.00;;
16531;SDS011;66872;63.142;14.482;2023-08-07T12:48:08;0.93;;;0.93;;
16531;SDS011;66872;63.142;14.482;2023-08-07T12:50:34;1.23;;;1.10;;
16531;SDS011;66872;63.142;14.482;2023-08-07T12:53:00;1.20;;;1.10;;
16531;SDS011;66872;63.142;14.482;2023-08-07T12:55:26;1.40;;;1.30;;
16531;SDS011;66872;63.142;14.482;2023-08-07T12:57:53;1.13;;;1.03;;
16531;SDS011;66872;63.142;14.482;2023-08-07T13:00:19;1.27;;;1.17;;
16531;SDS011;66872;63.142;14.482;2023-08-07T13:02:45;0.97;;;0.97;;
16531;SDS011;66872;63.142;14.482;2023-08-07T13:05:13;1.37;;;1.27;;
16531;SDS011;66872;63.142;14.482;2023-08-07T13:07:40;1.27;;;1.17;;
16531;SDS011;66872;63.142;14.482;2023-08-07T13:10:06;1.03;;;1.00;;
16531;SDS011;66872;63.142;14.482;2023-08-07T13:12:37;1.30;;;1.20;;
16531;SDS011;66872;63.142;14.482;2023-08-07T13:15:07;1.20;;;1.07;;
16531;SDS011;66872;63.142;14.482;2023-08-07T13:17:34;1.03;;;1.03;;
16531;SDS011;66872;63.142;14.482;2023-08-07T13:20:02;1.00;;;1.00;;
16531;SDS011;66872;63.142;14.482;2023-08-07T13:22:32;1.10;;;1.00;;
16531;SDS011;66872;63.142;14.482;2023-08-07T13:25:02;1.23;;;1.03;;
16531;SDS011;66872;63.142;14.482;2023-08-07T13:27:28;1.03;;;1.00;;
16531;SDS011;66872;63.142;14.482;2023-08-07T13:29:55;1.20;;;1.10;;
16531;SDS011;66872;63.142;14.482;2023-08-07T13:32:20;1.30;;;1.20;;
16531;SDS011;66872;63.142;14.482;2023-08-07T13:34:46;1.20;;;1.10;;
16531;SDS011;66872;63.142;14.482;2023-08-07T13:37:12;1.00;;;1.00;;
16531;SDS011;66872;63.142;14.482;2023-08-07T13:39:39;1.10;;;1.00;;
16531;SDS011;66872;63.142;14.482;2023-08-07T13:42:05;1.10;;;1.00;;
16531;SDS011;66872;63.142;14.482;2023-08-07T13:44:31;1.70;;;1.40;;
16531;SDS011;66872;63.142;14.482;2023-08-07T13:46:57;1.30;;;1.20;;
16531;SDS011;66872;63.142;14.482;2023-08-07T13:49:22;1.10;;;1.10;;
16531;SDS011;66872;63.142;14.482;2023-08-07T13:51:48;1.17;;;1.07;;
16531;SDS011;66872;63.142;14.482;2023-08-07T13:54:15;1.20;;;1.10;;
16531;SDS011;66872;63.142;14.482;2023-08-07T13:56:40;1.30;;;1.20;;
16531;SDS011;66872;63.142;14.482;2023-08-07T13:59:06;1.00;;;0.90;;
16531;SDS011;66872;63.142;14.482;2023-08-07T14:01:33;1.37;;;1.10;;
16531;SDS011;66872;63.142;14.482;2023-08-07T14:04:00;1.07;;;1.07;;
16531;SDS011;66872;63.142;14.482;2023-08-07T14:06:26;1.23;;;1.13;;
16531;SDS011;66872;63.142;14.482;2023-08-07T14:08:52;1.30;;;1.20;;
16531;SDS011;66872;63.142;14.482;2023-08-07T14:11:18;1.30;;;1.20;;
16531;SDS011;66872;63.142;14.482;2023-08-07T14:13:45;1.30;;;1.20;;
16531;SDS011;66872;63.142;14.482;2023-08-07T14:16:11;1.10;;;1.00;;
16531;SDS011;66872;63.142;14.482;2023-08-07T14:18:37;1.10;;;1.00;;
16531;SDS011;66872;63.142;14.482;2023-08-07T14:21:03;1.50;;;1.00;;
16531;SDS011;66872;63.142;14.482;2023-08-07T14:23:29;1.07;;;0.97;;
16531;SDS011;66872;63.142;14.482;2023-08-07T14:25:55;0.80;;;0.80;;
16531;SDS011;66872;63.142;14.482;2023-08-07T14:28:21;1.00;;;1.00;;
16531;SDS011;66872;63.142;14.482;2023-08-07T14:30:47;1.20;;;1.00;;
16531;SDS011;66872;63.142;14.482;2023-08-07T14:33:13;1.10;;;1.00;;
16531;SDS011;66872;63.142;14.482;2023-08-07T14:35:39;1.20;;;1.00;;
16531;SDS011;66872;63.142;14.482;2023-08-07T14:38:05;1.30;;;1.20;;
16531;SDS011;66872;63.142;14.482;2023-08-07T14:40:31;1.93;;;1.00;;
16531;SDS011;66872;63.142;14.482;2023-08-07T14:42:56;1.30;;;1.10;;
16531;SDS011;66872;63.142;14.482;2023-08-07T14:45:22;1.30;;;1.10;;